createdAt,value
2019-05-25T00:04:48.043Z,12.39
2019-05-25T00:09:52.598Z,12.52
2019-05-25T00:14:57.255Z,12.39
2019-05-25T00:20:01.836Z,12.40
2019-05-25T00:25:06.658Z,12.43
2019-05-25T00:30:11.231Z,12.51
2019-05-25T00:35:16.070Z,12.44
2019-05-25T00:40:21.482Z,12.44
2019-05-25T00:45:26.246Z,12.40
2019-05-25T00:50:30.817Z,12.50
2019-05-25T00:55:35.319Z,12.48
2019-05-25T01:00:40.063Z,12.56
2019-05-25T01:05:44.513Z,12.52
2019-05-25T01:10:49.085Z,12.55
2019-05-25T01:15:53.759Z,12.58
2019-05-25T01:20:58.567Z,12.53
2019-05-25T01:26:03.210Z,12.53
2019-05-25T01:31:07.967Z,12.50
2019-05-25T01:36:12.542Z,12.55
2019-05-25T01:41:17.343Z,12.56
2019-05-25T01:46:21.924Z,12.55
2019-05-25T01:51:26.458Z,12.62
2019-05-25T01:56:31.035Z,12.51
2019-05-25T02:01:35.675Z,12.52
2019-05-25T02:06:40.394Z,12.52
2019-05-25T02:11:45.103Z,12.52
2019-05-25T02:16:49.707Z,12.48
2019-05-25T02:21:54.666Z,12.44
2019-05-25T02:26:59.477Z,12.42
2019-05-25T02:32:04.115Z,12.44
2019-05-25T02:37:08.851Z,12.47
2019-05-25T02:42:13.846Z,12.49
2019-05-25T02:47:18.455Z,12.45
2019-05-25T02:52:23.178Z,12.46
2019-05-25T02:57:27.803Z,12.38
2019-05-25T03:02:32.600Z,12.36
2019-05-25T03:07:37.599Z,12.32
2019-05-25T03:12:42.256Z,12.35
2019-05-25T03:17:46.887Z,12.40
2019-05-25T03:22:51.430Z,12.36
2019-05-25T03:27:56.075Z,12.31
2019-05-25T03:33:00.773Z,12.32
2019-05-25T03:38:05.418Z,12.37
2019-05-25T03:43:10.064Z,12.34
2019-05-25T03:48:14.724Z,12.30
2019-05-25T03:53:19.430Z,12.34
2019-05-25T03:58:23.995Z,12.42
2019-05-25T04:03:28.556Z,12.42
2019-05-25T04:08:33.086Z,12.36
2019-05-25T04:13:37.605Z,12.37
2019-05-25T04:18:42.261Z,12.41
2019-05-25T04:23:46.793Z,12.46
2019-05-25T04:28:51.449Z,12.37
2019-05-25T04:33:56.063Z,12.47
2019-05-25T04:39:00.780Z,12.45
2019-05-25T04:44:05.369Z,12.39
2019-05-25T04:49:09.866Z,12.55
2019-05-25T04:54:14.462Z,12.48
2019-05-25T04:59:19.195Z,12.53
2019-05-25T05:04:23.859Z,12.57
2019-05-25T05:09:29.770Z,12.64
2019-05-25T05:14:34.245Z,12.73
2019-05-25T05:19:38.781Z,12.77
2019-05-25T05:24:43.467Z,12.82
2019-05-25T05:29:48.206Z,12.77
2019-05-25T05:34:53.378Z,12.82
2019-05-25T05:39:58.590Z,12.78
2019-05-25T05:45:04.752Z,12.78
2019-05-25T05:50:10.758Z,12.79
2019-05-25T05:55:18.903Z,12.82
2019-05-25T06:00:23.611Z,12.86
2019-05-25T06:05:28.220Z,12.88
2019-05-25T06:10:32.887Z,12.93
2019-05-25T06:15:37.881Z,13.02
2019-05-25T06:20:43.221Z,13.05
2019-05-25T06:25:47.738Z,13.18
2019-05-25T06:30:52.436Z,13.26
2019-05-25T06:35:56.911Z,13.14
2019-05-25T06:41:01.615Z,13.26
2019-05-25T06:46:06.548Z,13.34
2019-05-25T06:51:10.990Z,13.37
2019-05-25T06:56:15.575Z,13.28
2019-05-25T07:01:20.208Z,13.32
2019-05-25T07:06:25.236Z,13.31
2019-05-25T07:11:29.931Z,13.36
2019-05-25T07:16:34.573Z,13.35
2019-05-25T07:21:39.531Z,13.47
2019-05-25T07:26:44.239Z,13.67
2019-05-25T07:31:48.844Z,13.70
2019-05-25T07:36:53.547Z,13.83
2019-05-25T07:41:58.248Z,13.78
2019-05-25T07:47:02.867Z,14.02
2019-05-25T07:52:07.495Z,13.70
2019-05-25T07:57:12.179Z,13.68
2019-05-25T08:02:16.988Z,13.61
2019-05-25T08:07:21.767Z,13.68
2019-05-25T08:12:27.983Z,13.61
2019-05-25T08:17:32.570Z,13.72
2019-05-25T08:22:37.224Z,13.74
2019-05-25T08:27:41.788Z,13.86
2019-05-25T08:32:46.324Z,14.05
2019-05-25T08:37:50.995Z,14.35
2019-05-25T08:42:55.815Z,14.35
2019-05-25T08:48:00.604Z,15.16
2019-05-25T08:53:05.572Z,15.87
2019-05-25T08:58:10.523Z,16.10
2019-05-25T09:03:15.447Z,16.47
2019-05-25T09:08:20.132Z,16.60
2019-05-25T09:13:25.294Z,16.95
2019-05-25T09:18:30.338Z,17.11
2019-05-25T09:23:35.065Z,17.74
2019-05-25T09:28:40.051Z,17.90
2019-05-25T09:33:44.818Z,18.01
2019-05-25T09:38:49.509Z,18.38
2019-05-25T09:43:54.466Z,17.43
2019-05-25T09:48:59.191Z,18.34
2019-05-25T09:54:03.919Z,18.21
2019-05-25T09:59:19.845Z,18.57
2019-05-25T10:04:15.186Z,18.36
2019-05-25T10:09:19.892Z,18.30
2019-05-25T10:14:24.833Z,18.98
2019-05-25T10:19:29.710Z,19.53
2019-05-25T10:24:34.599Z,18.99
2019-05-25T10:29:39.449Z,19.30
2019-05-25T10:34:44.103Z,17.92
2019-05-25T10:39:48.786Z,18.82
2019-05-25T10:44:54.724Z,19.37
2019-05-25T10:49:59.375Z,18.78
2019-05-25T10:55:04.139Z,18.93
2019-05-25T11:00:10.076Z,19.52
2019-05-25T11:05:15.599Z,18.69
2019-05-25T11:10:20.786Z,18.36
2019-05-25T11:15:26.012Z,18.88
2019-05-25T11:20:30.898Z,18.20
2019-05-25T11:25:35.821Z,18.15
2019-05-25T11:30:40.413Z,18.11
2019-05-25T11:35:46.007Z,18.22
2019-05-25T11:40:50.859Z,18.09
2019-05-25T11:45:55.510Z,18.15
2019-05-25T11:51:00.251Z,17.91
2019-05-25T11:56:04.887Z,17.58
2019-05-25T12:01:09.518Z,17.44
2019-05-25T12:06:14.110Z,16.96
2019-05-25T12:11:19.031Z,16.59
2019-05-25T12:16:23.630Z,17.00
2019-05-25T12:21:28.211Z,17.67
2019-05-25T12:26:32.851Z,18.43
2019-05-25T12:31:37.646Z,19.46
2019-05-25T12:36:42.437Z,19.46
2019-05-25T12:41:47.163Z,19.42
2019-05-25T12:46:51.898Z,19.13
2019-05-25T12:51:56.472Z,18.86
2019-05-25T12:57:02.784Z,18.66
2019-05-25T13:02:08.430Z,19.12
2019-05-25T13:07:13.099Z,19.44
2019-05-25T13:12:18.604Z,20.18
2019-05-25T13:17:23.491Z,19.85
2019-05-25T13:22:28.110Z,19.61
2019-05-25T13:27:32.839Z,19.81
2019-05-25T13:32:37.578Z,19.57
2019-05-25T13:37:42.300Z,19.29
2019-05-25T13:42:47.066Z,18.50
2019-05-25T13:47:51.852Z,17.93
2019-05-25T13:52:56.599Z,17.34
2019-05-25T13:58:01.328Z,17.14
2019-05-25T14:03:06.365Z,16.81
2019-05-25T14:08:11.073Z,16.48
2019-05-25T14:13:16.103Z,15.88
2019-05-25T14:18:20.823Z,15.73
2019-05-25T14:23:25.719Z,15.83
2019-05-25T14:28:30.667Z,15.76
2019-05-25T14:33:35.251Z,15.38
2019-05-25T14:38:39.970Z,15.04
2019-05-25T14:43:44.678Z,14.90
2019-05-25T14:48:49.867Z,15.01
2019-05-25T14:53:54.713Z,14.81
2019-05-25T14:58:59.583Z,14.96
2019-05-25T15:04:04.318Z,14.98
2019-05-25T15:09:09.498Z,14.87
2019-05-25T15:14:14.287Z,14.74
2019-05-25T15:19:18.996Z,14.88
2019-05-25T15:24:23.862Z,14.81
2019-05-25T15:29:28.631Z,14.67
2019-05-25T15:34:33.411Z,14.48
2019-05-25T15:39:38.544Z,14.44
2019-05-25T15:44:43.320Z,14.72
2019-05-25T15:49:47.970Z,14.56
2019-05-25T15:54:52.758Z,14.46
2019-05-25T15:59:57.396Z,14.36
2019-05-25T16:05:02.064Z,14.50
2019-05-25T16:10:07.843Z,14.73
2019-05-25T16:15:15.543Z,14.82
2019-05-25T16:20:23.159Z,14.82
2019-05-25T16:25:27.867Z,14.79
2019-05-25T16:30:32.583Z,14.78
2019-05-25T16:35:37.479Z,14.66
2019-05-25T16:40:42.541Z,14.49
2019-05-25T16:45:47.149Z,14.77
2019-05-25T16:50:52.046Z,14.77
2019-05-25T16:55:56.992Z,14.52
2019-05-25T17:01:01.975Z,14.60
2019-05-25T17:06:07.005Z,14.59
2019-05-25T17:11:11.792Z,14.55
2019-05-25T17:16:16.498Z,14.59
2019-05-25T17:21:21.980Z,14.47
2019-05-25T17:26:26.770Z,14.33
2019-05-25T17:31:31.411Z,14.25
2019-05-25T17:36:36.483Z,14.12
2019-05-25T17:41:41.130Z,14.27
2019-05-25T17:46:46.060Z,14.07
2019-05-25T17:51:50.798Z,14.08
2019-05-25T17:56:55.706Z,13.91
2019-05-25T18:02:00.399Z,13.99
2019-05-25T18:07:05.210Z,14.16
2019-05-25T18:12:10.023Z,14.09
2019-05-25T18:17:14.893Z,14.05
2019-05-25T18:22:19.851Z,13.97
2019-05-25T18:27:24.462Z,14.07
2019-05-25T18:32:29.293Z,13.93
2019-05-25T18:37:33.953Z,13.77
2019-05-25T18:42:38.812Z,13.67
2019-05-25T18:47:43.620Z,13.75
2019-05-25T18:52:48.391Z,13.73
2019-05-25T18:57:53.203Z,13.69
2019-05-25T19:02:58.711Z,13.66
2019-05-25T19:08:03.560Z,13.66
2019-05-25T19:13:08.281Z,13.55
2019-05-25T19:18:13.091Z,13.55
2019-05-25T19:23:18.198Z,13.42
2019-05-25T19:28:23.076Z,13.47
2019-05-25T19:33:28.180Z,13.50
2019-05-25T19:38:32.879Z,13.42
2019-05-25T19:43:37.634Z,13.46
2019-05-25T19:48:42.401Z,13.48
2019-05-25T19:53:47.118Z,13.41
2019-05-25T19:58:51.911Z,13.38
2019-05-25T20:03:57.590Z,13.42
2019-05-25T20:09:02.834Z,13.24
2019-05-25T20:14:07.973Z,13.23
2019-05-25T20:19:12.930Z,13.26
2019-05-25T20:24:18.072Z,13.23
2019-05-25T20:29:22.820Z,13.26
2019-05-25T20:34:27.536Z,13.17
2019-05-25T20:39:32.640Z,13.09
2019-05-25T20:44:37.459Z,13.10
2019-05-25T20:49:42.187Z,13.02
2019-05-25T20:54:47.099Z,13.07
2019-05-25T20:59:51.931Z,13.07
2019-05-25T21:04:56.620Z,13.08
2019-05-25T21:10:01.311Z,13.02
2019-05-25T21:15:06.493Z,13.09
2019-05-25T21:20:12.650Z,13.07
2019-05-25T21:25:18.638Z,13.05
2019-05-25T21:30:23.862Z,13.10
2019-05-25T21:35:28.670Z,13.15
2019-05-25T21:40:33.652Z,13.14
2019-05-25T21:45:38.546Z,13.16
2019-05-25T21:50:43.499Z,13.25
2019-05-25T21:55:48.230Z,13.16
2019-05-25T22:00:52.970Z,13.18
2019-05-25T22:05:57.799Z,13.22
2019-05-25T22:11:02.838Z,13.09
2019-05-25T22:16:07.568Z,13.03
2019-05-25T22:21:13.239Z,13.03
2019-05-25T22:26:18.310Z,12.97
2019-05-25T22:31:23.066Z,12.93
2019-05-25T22:36:39.792Z,12.91
2019-05-25T22:41:34.400Z,12.90
2019-05-25T22:46:39.182Z,12.81
2019-05-25T22:51:43.990Z,12.77
2019-05-25T22:56:48.708Z,12.84
2019-05-25T23:01:53.621Z,12.82
2019-05-25T23:06:58.706Z,12.84
2019-05-25T23:12:03.554Z,12.96
2019-05-25T23:17:08.339Z,12.86
2019-05-25T23:22:14.212Z,12.85
2019-05-25T23:27:19.159Z,12.83
2019-05-25T23:32:23.890Z,12.87
2019-05-25T23:37:28.553Z,12.78
2019-05-25T23:42:33.510Z,12.58
2019-05-25T23:47:38.559Z,12.60
2019-05-25T23:52:43.312Z,12.58
2019-05-25T23:57:47.991Z,12.70
